.
WxDataArchive / Data Records for 2012-02-21
2012-02-20 February 2012 2012-02-22

Data Records for Tuesday, 21 February 2012

Time	Temp	Chill	HIndex	Humid	Dewpt	 Wind 	HiWind	WindDir	Rain 	Barom 
-----	----	-----	------	-----	-----	------	------	-------	-----	----- 
00:00	31.0	31.0	31.0	75	24.0	0	2	112	0.00	30.101 
00:05	30.7	30.7	30.7	76	24.0	1	3	112	0.00	30.101 
00:10	30.4	30.4	30.4	77	24.1	1	3	112	0.00	30.101 
00:15	30.3	30.3	30.3	78	24.3	1	4	112	0.00	30.087 
00:20	30.0	30.0	30.0	79	24.3	2	4	68	0.00	30.087 
00:25	29.8	29.8	29.8	79	24.1	1	5	90	0.00	30.087 
00:30	29.7	29.7	29.7	80	24.3	1	4	90	0.00	30.071 
00:35	29.5	29.5	29.5	80	24.1	1	3	90	0.00	30.071 
00:40	29.5	29.5	29.5	81	24.4	1	3	90	0.00	30.071 
00:45	29.5	29.5	29.5	81	24.4	1	4	90	0.00	30.063 
00:50	29.7	29.7	29.7	80	24.3	2	4	90	0.00	30.063 
00:55	29.8	29.8	29.8	80	24.4	2	3	90	0.00	30.063 
01:00	30.0	30.0	30.0	80	24.6	2	4	90	0.00	30.046 
01:05	30.1	30.1	30.1	79	24.4	2	6	90	0.00	30.046 
01:10	30.3	30.3	30.3	78	24.3	2	6	90	0.00	30.046 
01:15	30.6	30.6	30.6	78	24.6	3	9	90	0.00	30.023 
01:20	30.9	26.8	30.9	77	24.6	4	8	112	0.00	30.023 
01:25	31.0	31.0	31.0	76	24.3	3	5	90	0.00	30.023 
01:30	31.0	26.9	31.0	75	24.0	4	6	90	0.00	30.003 
01:35	31.2	31.2	31.2	75	24.2	3	7	112	0.00	30.003 
01:40	31.2	31.2	31.2	75	24.2	2	5	90	0.00	30.003 
01:45	31.3	31.3	31.3	75	24.3	3	6	90	0.00	29.998 
01:50	31.5	31.5	31.5	74	24.2	3	5	90	0.00	29.998 
01:55	31.6	31.6	31.6	74	24.3	3	5	90	0.00	29.998 
02:00	31.6	31.6	31.6	74	24.3	2	5	90	0.00	30.000 
02:05	31.6	31.6	31.6	74	24.3	1	3	90	0.00	30.000 
02:10	31.6	31.6	31.6	73	24.0	1	4	90	0.00	30.000 
02:15	31.8	31.8	31.8	73	24.1	1	4	112	0.00	29.995 
02:20	31.9	31.9	31.9	72	23.9	1	3	112	0.00	29.995 
02:25	32.2	32.2	32.2	72	24.2	2	6	112	0.00	29.995 
02:30	32.2	32.2	32.2	72	24.2	1	3	112	0.00	29.986 
02:35	32.4	32.4	32.4	72	24.4	1	2	135	0.00	29.986 
02:40	32.4	32.4	32.4	72	24.4	1	4	112	0.00	29.986 
02:45	32.4	32.4	32.4	72	24.4	1	3	90	0.00	29.980 
02:50	32.4	32.4	32.4	72	24.4	0	2	158	0.00	29.980 
02:55	32.2	32.2	32.2	72	24.2	1	3	158	0.00	29.980 
03:00	32.2	32.2	32.2	72	24.2	0	3	112	0.00	29.968 
03:05	32.2	32.2	32.2	72	24.2	0	2	112	0.00	29.968 
03:10	32.2	32.2	32.2	73	24.5	0	2	112	0.00	29.968 
03:15	32.1	32.1	32.1	73	24.4	0	2	112	0.00	29.956 
03:20	32.1	32.1	32.1	73	24.4	0	2	112	0.00	29.956 
03:25	32.2	32.2	32.2	72	24.2	0	3	112	0.00	29.956 
03:30	32.4	32.4	32.4	71	24.1	1	4	135	0.00	29.937 
03:35	32.7	32.7	32.7	70	24.0	1	3	90	0.00	29.937 
03:40	32.9	32.9	32.9	69	23.9	1	3	135	0.00	29.937 
03:45	33.2	33.2	33.2	67	23.4	1	4	135	0.00	29.924 
03:50	33.5	33.5	33.5	66	23.4	1	5	112	0.00	29.924 
03:55	33.8	33.8	33.8	65	23.3	1	4	68	0.00	29.924 
04:00	34.0	34.0	34.0	65	23.5	2	5	112	0.00	29.895 
04:05	34.1	34.1	34.1	65	23.6	2	5	90	0.00	29.895 
04:10	34.1	34.1	34.1	65	23.6	2	4	68	0.00	29.895 
04:15	34.1	34.1	34.1	65	23.6	1	3	68	0.00	29.875 
04:20	34.1	34.1	34.1	65	23.6	2	4	112	0.00	29.875 
04:25	34.1	34.1	34.1	65	23.6	1	4	112	0.00	29.875 
04:30	34.3	34.3	34.3	65	23.8	1	3	68	0.00	29.856 
04:35	34.3	34.3	34.3	65	23.8	1	5	112	0.00	29.856 
04:40	34.3	34.3	34.3	65	23.8	1	5	90	0.00	29.856 
04:45	34.4	34.4	34.4	65	23.9	1	3	90	0.00	29.844 
04:50	34.6	34.6	34.6	65	24.1	1	6	135	0.00	29.844 
04:55	34.7	34.7	34.7	65	24.2	1	3	90	0.00	29.844 
05:00	34.9	34.9	34.9	65	24.3	1	4	90	0.00	29.840 
05:05	35.0	35.0	35.0	65	24.4	2	3	112	0.00	29.840 
05:10	35.0	35.0	35.0	65	24.4	2	5	68	0.00	29.840 
05:15	35.2	35.2	35.2	65	24.6	2	5	90	0.00	29.830 
05:20	35.3	35.3	35.3	65	24.7	2	6	112	0.00	29.830 
05:25	35.5	35.5	35.5	65	24.9	3	9	90	0.00	29.830 
05:30	35.6	35.6	35.6	65	25.0	2	5	112	0.00	29.822 
05:35	35.8	35.8	35.8	65	25.2	2	7	112	0.00	29.822 
05:40	35.8	35.8	35.8	65	25.2	2	6	90	0.00	29.822 
05:45	35.8	35.8	35.8	65	25.2	1	4	112	0.00	29.794 
05:50	35.8	35.8	35.8	65	25.2	2	10	90	0.00	29.794 
05:55	35.9	35.9	35.9	66	25.7	2	10	90	0.00	29.794 
06:00	35.8	35.8	35.8	66	25.6	2	5	112	0.00	29.778 
06:05	35.8	35.8	35.8	67	25.9	2	7	68	0.00	29.778 
06:10	35.8	35.8	35.8	67	25.9	2	5	112	0.00	29.778 
06:15	35.8	35.8	35.8	68	26.3	2	6	90	0.00	29.778 
06:20	35.8	35.8	35.8	68	26.3	2	4	112	0.00	29.778 
06:25	35.9	35.9	35.9	68	26.4	2	6	90	0.00	29.778 
06:30	35.9	35.9	35.9	68	26.4	2	7	90	0.00	29.779 
06:35	35.9	35.9	35.9	69	26.7	2	5	90	0.00	29.779 
06:40	35.9	35.9	35.9	69	26.7	2	6	112	0.00	29.779 
06:45	36.0	36.0	36.0	69	26.8	3	8	112	0.00	29.774 
06:50	36.2	36.2	36.2	69	27.0	2	9	90	0.00	29.774 
06:55	36.3	36.3	36.3	69	27.1	2	5	68	0.00	29.774 
07:00	36.3	36.3	36.3	70	27.5	2	4	135	0.00	29.765 
07:05	36.5	36.5	36.5	72	28.3	1	4	112	0.00	29.765 
07:10	36.5	36.5	36.5	75	29.3	1	4	90	0.00	29.765 
07:15	36.3	36.3	36.3	77	29.8	1	3	90	0.00	29.765 
07:20	36.0	36.0	36.0	79	30.1	1	6	90	0.01	29.765 
07:25	35.9	35.9	35.9	80	30.3	1	6	90	0.00	29.765 
07:30	35.6	35.6	35.6	81	30.4	2	5	90	0.00	29.762 
07:35	35.2	35.2	35.2	83	30.6	2	4	112	0.00	29.762 
07:40	34.7	34.7	34.7	85	30.7	2	5	90	0.00	29.762 
07:45	34.3	34.3	34.3	86	30.6	0	2	0	0.00	29.769 
07:50	33.8	33.8	33.8	88	30.6	1	3	112	0.00	29.769 
07:55	33.5	33.5	33.5	89	30.6	1	3	112	0.00	29.769 
08:00	33.4	33.4	33.4	90	30.8	1	4	90	0.00	29.766 
08:05	33.2	33.2	33.2	90	30.6	1	5	90	0.00	29.766 
08:10	33.1	33.1	33.1	91	30.8	1	5	112	0.00	29.766 
08:15	33.1	33.1	33.1	91	30.8	1	3	112	0.00	29.752 
08:20	33.1	33.1	33.1	92	31.0	1	5	112	0.00	29.752 
08:25	33.2	33.2	33.2	92	31.1	1	4	112	0.00	29.752 
08:30	33.2	33.2	33.2	92	31.1	1	4	112	0.00	29.738 
08:35	33.2	33.2	33.2	92	31.1	1	3	112	0.00	29.738 
08:40	33.4	33.4	33.4	92	31.3	1	4	112	0.00	29.738 
08:45	33.4	33.4	33.4	93	31.6	1	3	112	0.00	29.737 
08:50	33.5	33.5	33.5	93	31.7	1	4	90	0.01	29.737 
08:55	33.5	33.5	33.5	93	31.7	1	4	90	0.00	29.737 
09:00	33.7	33.7	33.7	93	31.9	1	5	90	0.00	29.730 
09:05	33.8	33.8	33.8	93	32.0	1	3	90	0.01	29.730 
09:10	34.0	34.0	34.0	93	32.2	1	3	112	0.00	29.730 
09:15	34.1	34.1	34.1	93	32.3	1	3	338	0.01	29.723 
09:20	34.3	34.3	34.3	93	32.5	0	3	90	0.00	29.723 
09:25	34.4	34.4	34.4	93	32.6	0	1	90	0.00	29.723 
09:30	34.6	34.6	34.6	93	32.8	0	2	90	0.01	29.724 
09:35	34.7	34.7	34.7	93	32.9	0	2	90	0.00	29.724 
09:40	34.9	34.9	34.9	94	33.4	1	3	90	0.01	29.724 
09:45	35.0	35.0	35.0	94	33.5	0	3	270	0.00	29.720 
09:50	35.2	35.2	35.2	94	33.6	1	3	338	0.01	29.720 
09:55	35.3	35.3	35.3	94	33.7	1	5	248	0.00	29.720 
10:00	35.5	35.5	35.5	94	33.9	0	3	90	0.00	29.716 
10:05	35.6	35.6	35.6	94	34.0	1	3	90	0.01	29.716 
10:10	35.8	35.8	35.8	94	34.2	0	4	90	0.00	29.716 
10:15	35.9	35.9	35.9	94	34.3	1	4	248	0.00	29.707 
10:20	36.0	36.0	36.0	94	34.4	1	4	202	0.01	29.707 
10:25	36.2	36.2	36.2	94	34.6	1	3	248	0.00	29.707 
10:30	36.2	36.2	36.2	94	34.6	0	2	248	0.01	29.712 
10:35	36.3	36.3	36.3	94	34.7	1	3	248	0.00	29.712 
10:40	36.5	36.5	36.5	94	34.9	1	3	248	0.00	29.712 
10:45	36.6	36.6	36.6	94	35.0	0	3	248	0.00	29.703 
10:50	36.6	36.6	36.6	94	35.0	1	4	248	0.01	29.703 
10:55	36.9	36.9	36.9	94	35.3	1	4	248	0.00	29.703 
11:00	37.0	37.0	37.0	94	35.4	1	4	248	0.01	29.703 
11:05	37.2	37.2	37.2	94	35.6	1	3	248	0.00	29.703 
11:10	37.5	37.5	37.5	94	35.9	2	10	248	0.00	29.703 
11:15	37.5	37.5	37.5	94	35.9	1	4	248	0.01	29.711 
11:20	37.6	37.6	37.6	94	36.0	1	6	270	0.00	29.711 
11:25	37.9	37.9	37.9	94	36.3	1	4	248	0.00	29.711 
11:30	38.2	38.2	38.2	94	36.6	0	2	248	0.01	29.705 
11:35	38.6	38.6	38.6	95	37.3	1	3	248	0.00	29.705 
11:40	39.1	39.1	39.1	95	37.8	1	3	248	0.00	29.705 
11:45	39.6	39.6	39.6	95	38.3	2	6	248	0.01	29.703 
11:50	39.9	39.9	39.9	95	38.6	2	5	248	0.00	29.703 
11:55	40.2	40.2	40.2	94	38.6	1	5	248	0.00	29.703 
12:00	40.5	40.5	40.5	94	38.9	3	11	248	0.00	29.708 
12:05	40.6	37.2	40.6	93	38.7	5	10	248	0.01	29.708 
12:10	40.9	40.9	40.9	93	39.0	2	5	248	0.00	29.708 
12:15	41.3	41.3	41.3	92	39.2	3	6	270	0.00	29.714 
12:20	41.8	41.8	41.8	92	39.6	3	9	248	0.00	29.714 
12:25	42.3	42.3	42.3	91	39.9	3	9	270	0.00	29.714 
12:30	42.9	42.9	42.9	90	40.2	3	7	248	0.00	29.706 
12:35	43.2	43.2	43.2	88	39.9	3	9	248	0.00	29.706 
12:40	43.3	43.3	43.3	87	39.7	2	5	248	0.00	29.706 
12:45	43.5	41.4	43.5	86	39.6	4	9	248	0.00	29.697 
12:50	43.6	41.5	43.6	84	39.1	4	10	225	0.00	29.697 
12:55	43.8	43.8	43.8	83	39.0	3	7	248	0.00	29.697 
13:00	43.8	41.7	43.8	82	38.7	4	10	248	0.00	29.692 
13:05	43.9	43.9	43.9	82	38.8	3	7	248	0.00	29.692 
13:10	43.9	43.9	43.9	81	38.5	3	9	248	0.00	29.692 
13:15	43.9	41.8	43.9	81	38.5	4	9	248	0.00	29.684 
13:20	43.9	43.9	43.9	81	38.5	3	10	248	0.00	29.684 
13:25	43.9	43.9	43.9	80	38.1	3	10	248	0.00	29.684 
13:30	43.9	43.9	43.9	79	37.8	3	6	248	0.00	29.684 
13:35	44.1	44.1	44.1	80	38.3	3	9	248	0.00	29.684 
13:40	44.1	44.1	44.1	79	38.0	3	7	248	0.00	29.684 
13:45	44.2	44.2	44.2	79	38.1	2	6	248	0.00	29.681 
13:50	44.2	44.2	44.2	79	38.1	3	7	248	0.00	29.681 
13:55	44.3	44.3	44.3	79	38.2	1	4	248	0.00	29.681 
14:00	44.3	44.3	44.3	79	38.2	3	7	248	0.00	29.681 
14:05	44.3	44.3	44.3	79	38.2	3	9	248	0.00	29.681 
14:10	44.3	44.3	44.3	79	38.2	3	10	248	0.00	29.681 
14:15	44.3	44.3	44.3	78	37.9	3	9	248	0.00	29.684 
14:20	44.2	44.2	44.2	78	37.8	3	6	248	0.00	29.684 
14:25	44.2	42.2	44.2	78	37.8	4	10	248	0.00	29.684 
14:30	44.2	42.2	44.2	78	37.8	4	8	248	0.00	29.683 
14:35	44.1	42.1	44.1	77	37.4	4	10	248	0.00	29.683 
14:40	43.9	41.1	43.9	77	37.2	5	12	248	0.00	29.683 
14:45	43.9	41.8	43.9	78	37.5	4	12	248	0.00	29.684 
14:50	43.8	41.7	43.8	77	37.1	4	10	248	0.00	29.684 
14:55	43.8	41.7	43.8	77	37.1	4	10	248	0.00	29.684 
15:00	43.6	43.6	43.6	77	36.9	3	10	248	0.00	29.692 
15:05	43.5	40.6	43.5	78	37.1	5	10	248	0.00	29.692 
15:10	43.3	40.3	43.3	78	36.9	5	13	248	0.00	29.692 
15:15	43.3	43.3	43.3	79	37.2	3	9	248	0.00	29.692 
15:20	43.3	41.1	43.3	78	36.9	4	11	248	0.00	29.692 
15:25	43.3	43.3	43.3	78	36.9	3	9	248	0.00	29.692 
15:30	43.3	41.1	43.3	78	36.9	4	14	270	0.00	29.695 
15:35	43.3	43.3	43.3	78	36.9	2	7	248	0.00	29.695 
15:40	43.5	40.6	43.5	79	37.4	5	12	248	0.00	29.695 
15:45	43.5	40.6	43.5	80	37.7	5	11	248	0.00	29.694 
15:50	43.5	41.4	43.5	80	37.7	4	11	248	0.00	29.694 
15:55	43.5	43.5	43.5	80	37.7	3	10	248	0.00	29.694 
16:00	43.5	43.5	43.5	80	37.7	3	10	248	0.00	29.693 
16:05	43.6	43.6	43.6	81	38.2	3	11	248	0.00	29.693 
16:10	43.5	40.6	43.5	81	38.1	5	14	248	0.00	29.693 
16:15	43.5	41.4	43.5	81	38.1	4	9	248	0.00	29.692 
16:20	43.3	41.1	43.3	83	38.5	4	14	248	0.00	29.692 
16:25	43.2	43.2	43.2	84	38.7	3	6	248	0.00	29.692 
16:30	43.1	40.9	43.1	85	38.9	4	11	248	0.00	29.694 
16:35	42.8	40.6	42.8	86	38.9	4	10	248	0.00	29.694 
16:40	42.6	40.3	42.6	87	39.0	4	9	248	0.00	29.694 
16:45	42.5	42.5	42.5	88	39.2	2	10	248	0.00	29.696 
16:50	42.3	42.3	42.3	88	39.0	2	6	248	0.00	29.696 
16:55	42.2	42.2	42.2	89	39.2	3	12	248	0.00	29.696 
17:00	42.2	42.2	42.2	90	39.5	3	6	248	0.00	29.700 
17:05	42.1	42.1	42.1	90	39.4	3	10	248	0.00	29.700 
17:10	42.1	39.7	42.1	91	39.7	4	11	248	0.00	29.700 
17:15	42.1	42.1	42.1	91	39.7	3	12	248	0.00	29.697 
17:20	42.1	39.7	42.1	91	39.7	4	9	248	0.00	29.697 
17:25	42.1	39.7	42.1	91	39.7	4	7	248	0.00	29.697 
17:30	42.1	42.1	42.1	91	39.7	2	5	248	0.00	29.703 
17:35	42.1	42.1	42.1	91	39.7	2	7	248	0.00	29.703 
17:40	42.1	42.1	42.1	91	39.7	1	4	248	0.00	29.703 
17:45	42.1	42.1	42.1	91	39.7	3	7	248	0.00	29.697 
17:50	42.1	42.1	42.1	91	39.7	3	10	248	0.00	29.697 
17:55	42.1	42.1	42.1	92	39.9	2	8	248	0.00	29.697 
18:00	42.1	42.1	42.1	92	39.9	3	11	248	0.00	29.701 
18:05	42.1	42.1	42.1	92	39.9	3	9	248	0.00	29.701 
18:10	42.2	39.9	42.2	92	40.0	4	10	248	0.00	29.701 
18:15	42.2	39.9	42.2	91	39.8	4	9	248	0.00	29.709 
18:20	42.2	39.9	42.2	91	39.8	4	9	248	0.00	29.709 
18:25	42.2	42.2	42.2	91	39.8	3	12	248	0.00	29.709 
18:30	42.1	38.9	42.1	91	39.7	5	11	248	0.01	29.721 
18:35	42.1	42.1	42.1	91	39.7	3	7	270	0.00	29.721 
18:40	41.9	41.9	41.9	90	39.2	3	6	248	0.00	29.721 
18:45	41.8	39.4	41.8	89	38.8	4	11	248	0.00	29.726 
18:50	41.8	41.8	41.8	88	38.5	3	7	270	0.00	29.726 
18:55	41.6	41.6	41.6	88	38.3	3	7	292	0.00	29.726 
19:00	41.6	41.6	41.6	88	38.3	3	10	270	0.00	29.733 
19:05	41.6	39.2	41.6	87	38.0	4	13	248	0.00	29.733 
19:10	41.6	41.6	41.6	87	38.0	3	7	248	0.00	29.733 
19:15	41.5	41.5	41.5	87	37.9	3	9	248	0.00	29.744 
19:20	41.5	39.1	41.5	86	37.6	4	7	248	0.00	29.744 
19:25	41.5	39.1	41.5	86	37.6	4	11	248	0.00	29.744 
19:30	41.5	41.5	41.5	85	37.3	3	7	248	0.00	29.745 
19:35	41.5	41.5	41.5	85	37.3	3	7	248	0.00	29.745 
19:40	41.5	41.5	41.5	85	37.3	3	8	248	0.00	29.745 
19:45	41.5	41.5	41.5	85	37.3	3	11	248	0.00	29.747 
19:50	41.6	39.2	41.6	84	37.1	4	11	248	0.00	29.747 
19:55	41.6	41.6	41.6	84	37.1	3	7	248	0.00	29.747 
20:00	41.8	39.4	41.8	84	37.3	4	10	270	0.00	29.761 
20:05	41.8	39.4	41.8	84	37.3	4	7	248	0.00	29.761 
20:10	41.8	39.4	41.8	83	37.0	4	10	248	0.00	29.761 
20:15	41.8	41.8	41.8	83	37.0	3	10	248	0.00	29.761 
20:20	41.6	41.6	41.6	84	37.1	3	7	248	0.00	29.761 
20:25	41.5	41.5	41.5	84	37.0	2	5	248	0.00	29.761 
20:30	41.3	41.3	41.3	84	36.8	2	7	248	0.00	29.761 
20:35	41.3	41.3	41.3	84	36.8	2	5	270	0.00	29.761 
20:40	41.3	41.3	41.3	84	36.8	3	6	248	0.00	29.761 
20:45	41.3	41.3	41.3	84	36.8	2	5	248	0.00	29.763 
20:50	41.2	41.2	41.2	84	36.7	2	5	248	0.00	29.763 
20:55	41.2	41.2	41.2	85	37.0	2	5	248	0.00	29.763 
21:00	41.2	41.2	41.2	85	37.0	2	6	248	0.00	29.761 
21:05	41.3	41.3	41.3	85	37.1	3	7	248	0.00	29.761 
21:10	41.5	41.5	41.5	85	37.3	3	7	248	0.00	29.761 
21:15	41.5	41.5	41.5	86	37.6	1	4	248	0.00	29.757 
21:20	41.5	41.5	41.5	86	37.6	2	5	248	0.00	29.757 
21:25	41.5	41.5	41.5	86	37.6	1	5	248	0.00	29.757 
21:30	41.6	41.6	41.6	86	37.7	1	5	248	0.00	29.756 
21:35	41.6	41.6	41.6	86	37.7	2	5	248	0.00	29.756 
21:40	41.6	41.6	41.6	86	37.7	1	5	248	0.00	29.756 
21:45	41.6	41.6	41.6	86	37.7	2	6	225	0.00	29.756 
21:50	41.6	41.6	41.6	86	37.7	2	7	248	0.00	29.756 
21:55	41.6	41.6	41.6	86	37.7	2	7	248	0.00	29.756 
22:00	41.6	41.6	41.6	86	37.7	2	9	248	0.00	29.757 
22:05	41.6	41.6	41.6	86	37.7	2	9	248	0.00	29.757 
22:10	41.6	41.6	41.6	86	37.7	2	7	248	0.00	29.757 
22:15	41.6	41.6	41.6	86	37.7	1	4	248	0.00	29.750 
22:20	41.5	41.5	41.5	86	37.6	2	5	248	0.00	29.750 
22:25	41.5	41.5	41.5	86	37.6	3	9	248	0.00	29.750 
22:30	41.5	41.5	41.5	86	37.6	2	7	248	0.00	29.752 
22:35	41.5	39.1	41.5	85	37.3	4	9	248	0.00	29.752 
22:40	41.5	41.5	41.5	85	37.3	2	6	248	0.00	29.752 
22:45	41.3	41.3	41.3	85	37.1	3	6	248	0.00	29.752 
22:50	41.2	41.2	41.2	85	37.0	2	6	248	0.00	29.752 
22:55	41.2	41.2	41.2	85	37.0	2	6	248	0.00	29.752 
23:00	41.1	41.1	41.1	85	36.9	2	6	248	0.00	29.749 
23:05	40.9	40.9	40.9	85	36.7	2	6	248	0.00	29.749 
23:10	40.9	40.9	40.9	85	36.7	2	6	248	0.00	29.749 
23:15	40.8	40.8	40.8	84	36.3	2	6	225	0.00	29.746 
23:20	40.8	40.8	40.8	84	36.3	2	7	225	0.00	29.746 
23:25	40.8	40.8	40.8	84	36.3	1	6	225	0.00	29.746 
23:30	40.6	40.6	40.6	84	36.2	1	4	248	0.00	29.740 
23:35	40.5	40.5	40.5	84	36.1	2	6	248	0.00	29.740 
23:40	40.5	40.5	40.5	84	36.1	2	6	248	0.00	29.740 
23:45	40.5	40.5	40.5	84	36.1	1	5	248	0.00	29.739 
23:50	40.3	40.3	40.3	84	35.9	1	5	248	0.00	29.739 
23:55	40.3	40.3	40.3	84	35.9	2	7	248	0.00	29.739 

CoCoRaHS
IN-AL-39
A2 Web Hosting
Creative Commons License
GoDaddy
search engine by freefind advanced

loaded 2018-11-19 11:39:04 • last modified 2010-11-18 10:43:29
Privacy PolicyDisclaimer
• wx.awcolley.com is powered by PmWiki v.2002016 •
• all content (unless otherwise noted) © 2018 A W Colley